»·PEaware :: N2822D KGEG-KBZN

N2822D :: KGEG-KBZN

FLIGHT INFORMATION

Flight Status: Arrived
Operator: Privately registered:
United States
More flights under this callsign
Pilot: Wayne R. (17783)
Aircraft: CESSNA 310
(C310)
More flights by this aircraft type
Origin: KGEG Spokane Intl
United States
Destination: KBZN Gallatin
United States
More flights between these airports :: More routes between these airports
Route: +GEG6 V2 MSO V86 BZN
File this flight plan on PilotEdge
Remarks:
Altitude:
(Current/Filed)
11,000ft
Speed:
(Current/Filed)
155kts
Departed: 07-Nov-19 04:42 PM
Arrived: 07-Nov-19 06:23 PM
Distance/Time
Traveled:
285nm/1:40
Distance/Time
To Go:
Arrived

Flight Plot

Page will automatically refresh every two minutes.

Flight plan parsing failed; only flown route is shown


Map Options




Map Legend


Flown Route
Filed Route
Departure Airport
Arrival Airport
Navaid (VOR, NDB)
Fix

Horizontal Profiles

Position Reports

Time Latitude Longitude Heading Altitude Ground
Speed
07-Nov-19 16:17 47.620424 -117.528554 0 2362ft 0kts
07-Nov-19 16:18 47.620424 -117.528554 0 2362ft 0kts
07-Nov-19 16:19 47.620424 -117.528554 0 2362ft 0kts
07-Nov-19 16:20 47.620424 -117.528554 0 2362ft 0kts
07-Nov-19 16:21 47.620424 -117.528554 0 2362ft 0kts
07-Nov-19 16:22 47.620424 -117.528554 0 2362ft 0kts
07-Nov-19 16:23 47.620424 -117.528554 0 2362ft 0kts
07-Nov-19 16:24 47.620424 -117.528554 0 2362ft 0kts
07-Nov-19 16:25 47.620424 -117.528554 0 2362ft 0kts
07-Nov-19 16:26 47.620424 -117.528554 0 2362ft 0kts
07-Nov-19 16:27 47.620424 -117.528554 0 2362ft 0kts
07-Nov-19 16:28 47.620424 -117.528554 0 2362ft 0kts
07-Nov-19 16:29 47.620424 -117.528554 0 2362ft 0kts
07-Nov-19 16:30 47.620424 -117.528554 0 2362ft 0kts
07-Nov-19 16:31 47.620424 -117.528554 0 2362ft 0kts
07-Nov-19 16:32 47.620424 -117.528554 0 2362ft 0kts
07-Nov-19 16:33 47.620424 -117.528554 0 2362ft 0kts
07-Nov-19 16:34 47.620424 -117.528554 0 2362ft 0kts
07-Nov-19 16:35 47.620424 -117.528554 0 2362ft 0kts
07-Nov-19 16:36 47.620582 -117.528609 323 2362ft 8kts
07-Nov-19 16:37 47.618734 -117.529300 190 2367ft 16kts
07-Nov-19 16:38 47.618282 -117.523635 86 2371ft 22kts
07-Nov-19 16:39 47.617756 -117.520479 141 2373ft 0kts
07-Nov-19 16:40 47.617756 -117.520479 141 2373ft 0kts
07-Nov-19 16:41 47.616817 -117.525673 268 2373ft 73kts
07-Nov-19 16:42 47.609570 -117.575654 252 2979ft 149kts
07-Nov-19 16:43 47.584197 -117.621878 228 4359ft 142kts
07-Nov-19 16:44 47.550260 -117.656757 187 5351ft 155kts
07-Nov-19 16:45 47.541237 -117.610764 65 6289ft 142kts
07-Nov-19 16:46 47.554424 -117.553790 66 7145ft 149kts
07-Nov-19 16:47 47.570425 -117.495406 58 7895ft 153kts
07-Nov-19 16:48 47.588716 -117.436985 60 8613ft 156kts
07-Nov-19 16:49 47.605797 -117.376557 65 9265ft 159kts
07-Nov-19 16:50 47.622493 -117.316084 61 9845ft 159kts
07-Nov-19 16:51 47.641414 -117.255831 63 10379ft 161kts
07-Nov-19 16:52 47.647046 -117.190200 110 10857ft 164kts
07-Nov-19 16:53 47.625353 -117.129175 119 11081ft 179kts
07-Nov-19 16:54 47.600813 -117.062737 119 11077ft 184kts
07-Nov-19 16:55 47.576025 -116.994911 120 11080ft 188kts
07-Nov-19 16:56 47.550949 -116.925847 119 11123ft 192kts
07-Nov-19 16:57 47.531624 -116.850854 92 11150ft 198kts
07-Nov-19 16:58 47.528544 -116.768821 92 11145ft 200kts
07-Nov-19 16:59 47.521570 -116.687300 93 11126ft 200kts
07-Nov-19 17:00 47.515949 -116.604400 94 11081ft 204kts
07-Nov-19 17:01 47.510915 -116.520378 94 11062ft 203kts
07-Nov-19 17:02 47.505925 -116.436728 94 11069ft 203kts
07-Nov-19 17:03 47.500973 -116.353431 94 11071ft 202kts
07-Nov-19 17:04 47.496138 -116.271391 95 11049ft 200kts
07-Nov-19 17:05 47.490089 -116.189641 96 11049ft 199kts
07-Nov-19 17:06 47.483641 -116.108157 96 11046ft 199kts
07-Nov-19 17:07 47.477193 -116.026641 96 11043ft 198kts
07-Nov-19 17:08 47.470302 -115.945680 96 11043ft 198kts
07-Nov-19 17:09 47.463884 -115.864386 96 11045ft 198kts
07-Nov-19 17:10 47.457047 -115.783139 97 11062ft 199kts
07-Nov-19 17:11 47.448397 -115.702010 109 11077ft 200kts
07-Nov-19 17:12 47.429905 -115.624930 106 11108ft 199kts
07-Nov-19 17:13 47.416426 -115.544570 98 11068ft 203kts
07-Nov-19 17:14 47.408046 -115.461963 98 11070ft 202kts
07-Nov-19 17:15 47.381810 -115.398185 156 11055ft 189kts
07-Nov-19 17:16 47.349567 -115.334983 124 11062ft 198kts
07-Nov-19 17:17 47.319613 -115.266909 125 11037ft 197kts
07-Nov-19 17:18 47.289853 -115.199097 125 11017ft 197kts
07-Nov-19 17:19 47.260970 -115.129965 121 11032ft 197kts
07-Nov-19 17:20 47.237298 -115.056971 111 11103ft 199kts
07-Nov-19 17:21 47.217027 -114.979872 113 11081ft 204kts
07-Nov-19 17:22 47.195694 -114.902028 117 11076ft 205kts
07-Nov-19 17:23 47.174111 -114.824073 112 11084ft 205kts
07-Nov-19 17:24 47.151242 -114.747207 116 11094ft 205kts
07-Nov-19 17:25 47.126012 -114.671629 117 11069ft 206kts
07-Nov-19 17:26 47.099313 -114.596669 117 11034ft 207kts
07-Nov-19 17:27 47.073352 -114.520909 117 11019ft 207kts
07-Nov-19 17:28 47.046604 -114.446669 119 11030ft 203kts
07-Nov-19 17:29 47.019628 -114.374547 121 11019ft 200kts
07-Nov-19 17:30 46.991608 -114.303977 122 10986ft 198kts
07-Nov-19 17:31 46.963689 -114.234628 122 10947ft 196kts
07-Nov-19 17:32 46.936394 -114.166133 121 11015ft 191kts
07-Nov-19 17:33 46.909799 -114.099245 124 11198ft 181kts
07-Nov-19 17:34 46.879727 -114.042915 133 11568ft 170kts
07-Nov-19 17:35 46.849754 -113.990022 132 11952ft 167kts
07-Nov-19 17:36 46.819990 -113.937456 132 12313ft 168kts
07-Nov-19 17:37 46.790214 -113.884780 132 12638ft 169kts
07-Nov-19 17:38 46.758756 -113.833684 135 12919ft 169kts
07-Nov-19 17:39 46.727419 -113.781930 135 13185ft 170kts
07-Nov-19 17:40 46.695355 -113.731054 135 13407ft 172kts
07-Nov-19 17:41 46.661452 -113.677053 135 13355ft 185kts
07-Nov-19 17:42 46.625383 -113.621256 137 13250ft 191kts
07-Nov-19 17:43 46.588030 -113.565824 137 13190ft 192kts
07-Nov-19 17:44 46.550402 -113.510134 137 13136ft 192kts
07-Nov-19 17:45 46.513107 -113.454367 137 13090ft 192kts
07-Nov-19 17:46 46.476041 -113.398184 135 13039ft 192kts
07-Nov-19 17:47 46.437930 -113.344771 137 13033ft 188kts
07-Nov-19 17:48 46.400568 -113.291012 138 12965ft 189kts
07-Nov-19 17:49 46.363701 -113.237366 138 12944ft 187kts
07-Nov-19 17:50 46.326873 -113.183801 138 12918ft 187kts
07-Nov-19 17:51 46.289895 -113.130438 138 12903ft 186kts
07-Nov-19 17:52 46.253387 -113.077381 138 12924ft 185kts
07-Nov-19 17:54 46.217051 -113.024455 138 12941ft 186kts
07-Nov-19 17:55 46.180433 -112.971018 138 12950ft 187kts
07-Nov-19 17:56 46.143398 -112.917214 138 12961ft 190kts
07-Nov-19 17:57 46.105950 -112.862994 138 12972ft 192kts
07-Nov-19 17:58 46.067914 -112.808115 138 12990ft 194kts
07-Nov-19 17:59 46.033132 -112.748560 111 13027ft 195kts
07-Nov-19 18:00 46.011375 -112.676927 110 13021ft 195kts
07-Nov-19 18:01 45.990255 -112.604319 110 13033ft 196kts
07-Nov-19 18:02 45.969180 -112.531837 111 13049ft 196kts
07-Nov-19 18:03 45.948712 -112.459436 110 13069ft 196kts
07-Nov-19 18:04 45.928246 -112.386839 110 13086ft 196kts
07-Nov-19 18:05 45.907371 -112.312326 111 12932ft 202kts
07-Nov-19 18:06 45.886574 -112.237600 111 12860ft 200kts
07-Nov-19 18:07 45.878783 -112.161514 87 12645ft 190kts
07-Nov-19 18:08 45.876203 -112.085348 90 12267ft 192kts
07-Nov-19 18:09 45.872674 -112.008514 89 11873ft 193kts
07-Nov-19 18:10 45.868602 -111.932386 89 11469ft 194kts
07-Nov-19 18:11 45.864884 -111.854182 89 11032ft 193kts
07-Nov-19 18:11 45.862456 -111.789651 89 10610ft 193kts
07-Nov-19 18:13 45.859047 -111.700245 89 10072ft 191kts
07-Nov-19 18:14 45.856174 -111.624293 88 9617ft 191kts
07-Nov-19 18:14 45.852108 -111.561328 90 9078ft 186kts
07-Nov-19 18:15 45.849132 -111.488632 89 8406ft 179kts
07-Nov-19 18:17 45.846302 -111.406736 89 7619ft 174kts
07-Nov-19 18:17 45.844633 -111.349671 89 7175ft 166kts
07-Nov-19 18:18 45.841675 -111.290098 99 6500ft 138kts
07-Nov-19 18:20 45.830817 -111.231692 110 5331ft 116kts
07-Nov-19 18:20 45.814180 -111.202754 138 4791ft 119kts
07-Nov-19 18:21 45.790244 -111.169638 137 4506ft 109kts
07-Nov-19 18:22 45.781644 -111.161446 158 4445ft 19kts
07-Nov-19 18:23 45.775702 -111.153843 190 4457ft 16kts
07-Nov-19 18:36 45.772876 -111.152015 318 4463ft 0kts

Navigation Log

Ident Type
Flight plan parsing failed, navigation log unavailable